Time;durP1;ratioP1;P1;durP2;ratioP2;P2;SDS_P1;SDS_P2;PMS_P1;PMS_P2;Temp;Humidity;BMP_temperature;BMP_pressure;BME280_temperature;BME280_humidity;BME280_pressure;Samples;Min_cycle;Max_cycle;Signal;HPM_P1;HPM_P2
2023/09/30 00:00:22;;;;;;;3.65;1.00;;;12.70;95.50;;;;;;4937942;28;20051;-85
2023/09/30 00:02:52;;;;;;;3.25;1.10;;;12.70;95.50;;;;;;4950866;28;20497;-84
2023/09/30 00:05:19;;;;;;;4.68;1.10;;;12.70;95.50;;;;;;4938610;29;20079;-85
2023/09/30 00:07:47;;;;;;;3.50;0.93;;;12.70;95.40;;;;;;4931123;28;20047;-84
2023/09/30 00:10:17;;;;;;;4.43;1.10;;;12.80;95.40;;;;;;4922291;28;20048;-85
2023/09/30 00:12:45;;;;;;;3.60;1.10;;;12.80;95.40;;;;;;4922135;28;20050;-85
2023/09/30 00:15:14;;;;;;;4.95;1.15;;;12.80;95.40;;;;;;4926004;29;20051;-85
2023/09/30 00:17:45;;;;;;;6.80;1.25;;;12.80;95.40;;;;;;4924825;28;20078;-85
2023/09/30 00:20:14;;;;;;;2.75;1.30;;;12.80;95.40;;;;;;4925716;29;20055;-85
2023/09/30 00:22:42;;;;;;;7.00;1.50;;;12.80;95.40;;;;;;4925672;29;20058;-85
2023/09/30 00:25:13;;;;;;;4.63;1.00;;;12.80;95.40;;;;;;4941235;28;20754;-85
2023/09/30 00:27:41;;;;;;;3.97;1.25;;;12.80;95.40;;;;;;4932616;28;20089;-85
2023/09/30 00:30:09;;;;;;;5.18;1.48;;;12.80;95.40;;;;;;4960360;28;20057;-85
2023/09/30 00:32:37;;;;;;;3.40;1.13;;;12.80;95.40;;;;;;4923204;29;20078;-85
2023/09/30 00:35:04;;;;;;;4.57;1.30;;;12.80;95.50;;;;;;4925665;28;20043;-85
2023/09/30 00:37:32;;;;;;;4.72;1.20;;;12.70;95.50;;;;;;4941233;29;20401;-85
2023/09/30 00:40:03;;;;;;;3.65;0.90;;;12.70;95.50;;;;;;4941153;28;20481;-85
2023/09/30 00:42:31;;;;;;;4.25;1.10;;;12.70;95.60;;;;;;4940890;28;20051;-85
2023/09/30 00:44:58;;;;;;;5.70;1.08;;;12.70;95.60;;;;;;4935204;28;20142;-85
2023/09/30 00:47:26;;;;;;;3.05;1.05;;;12.60;95.60;;;;;;4926584;29;20047;-85
2023/09/30 00:49:56;;;;;;;4.55;1.00;;;12.60;95.60;;;;;;4950497;28;20145;-85
2023/09/30 00:52:29;;;;;;;4.47;1.00;;;12.60;95.60;;;;;;4927091;29;20087;-85
2023/09/30 00:54:57;;;;;;;4.28;0.98;;;12.50;95.60;;;;;;4936277;28;20050;-85
2023/09/30 00:57:25;;;;;;;3.72;1.00;;;12.60;95.70;;;;;;4940661;29;20051;-85
2023/09/30 01:00:03;;;;;;;2.70;0.88;;;12.50;95.70;;;;;;4926382;28;20050;-85
2023/09/30 01:02:32;;;;;;;4.55;0.82;;;12.50;95.70;;;;;;4930876;28;20054;-85
2023/09/30 01:05:19;;;;;;;3.47;1.27;;;12.50;95.70;;;;;;4925258;28;20055;-85
2023/09/30 01:07:48;;;;;;;2.30;0.98;;;12.50;95.80;;;;;;4925276;28;20118;-85
2023/09/30 01:10:19;;;;;;;4.05;1.00;;;12.50;95.80;;;;;;4940076;29;20048;-85
2023/09/30 01:12:46;;;;;;;4.55;1.00;;;12.40;95.80;;;;;;4934534;28;20126;-84
2023/09/30 01:15:15;;;;;;;4.22;0.80;;;12.40;95.80;;;;;;4940313;28;20085;-84
2023/09/30 01:17:46;;;;;;;4.30;0.98;;;12.40;95.80;;;;;;4933058;28;20055;-84
2023/09/30 01:20:20;;;;;;;4.05;1.10;;;12.30;95.80;;;;;;4939171;28;20055;-85
2023/09/30 01:22:49;;;;;;;3.90;1.20;;;12.30;95.80;;;;;;4923372;29;20048;-85
2023/09/30 01:25:16;;;;;;;1.88;0.88;;;12.30;95.90;;;;;;4952389;28;20051;-85
2023/09/30 01:27:43;;;;;;;3.00;0.93;;;12.30;95.90;;;;;;4922150;29;20040;-85
2023/09/30 01:30:13;;;;;;;2.45;0.85;;;12.30;95.90;;;;;;4941677;28;20055;-85
2023/09/30 01:32:41;;;;;;;4.32;0.93;;;12.20;95.90;;;;;;4938596;28;20047;-85
2023/09/30 01:35:11;;;;;;;5.05;1.20;;;12.20;95.90;;;;;;4926217;28;20066;-85
2023/09/30 01:37:39;;;;;;;4.30;1.00;;;12.20;95.90;;;;;;4946182;28;20055;-85
2023/09/30 01:40:08;;;;;;;3.70;1.10;;;12.20;96.00;;;;;;4940707;28;20075;-85
2023/09/30 01:42:44;;;;;;;2.67;0.80;;;12.10;96.00;;;;;;4925653;28;20050;-85
2023/09/30 01:45:14;;;;;;;2.97;1.00;;;12.10;96.00;;;;;;4921301;29;20062;-85
2023/09/30 01:47:44;;;;;;;4.38;1.13;;;12.10;96.00;;;;;;4935830;28;20054;-85
2023/09/30 01:50:12;;;;;;;3.63;0.90;;;12.10;96.00;;;;;;4932441;28;20090;-85
2023/09/30 01:52:45;;;;;;;2.90;0.98;;;12.10;96.00;;;;;;4937598;29;20039;-94
2023/09/30 01:55:14;;;;;;;3.85;0.90;;;12.10;96.00;;;;;;4922464;29;20446;-93
2023/09/30 01:57:41;;;;;;;4.40;1.10;;;12.10;96.00;;;;;;4922367;29;20063;-95
2023/09/30 02:00:09;;;;;;;2.75;1.02;;;12.10;96.00;;;;;;4922657;29;20056;-94
2023/09/30 02:02:44;;;;;;;4.38;1.27;;;12.00;96.00;;;;;;4922583;29;20051;-95
2023/09/30 02:05:16;;;;;;;2.72;0.95;;;12.00;96.00;;;;;;4922580;29;20063;-95
2023/09/30 02:07:48;;;;;;;3.00;1.00;;;12.00;96.00;;;;;;4922854;29;20051;-93
2023/09/30 02:10:18;;;;;;;2.13;0.80;;;12.00;96.30;;;;;;4924065;29;20052;-94
2023/09/30 02:12:46;;;;;;;3.40;1.05;;;12.00;96.00;;;;;;4924542;29;20047;-95
2023/09/30 02:15:20;;;;;;;3.17;0.90;;;12.00;96.00;;;;;;4925075;29;20503;-94
2023/09/30 02:17:48;;;;;;;4.55;0.90;;;12.00;96.00;;;;;;4925119;29;20111;-94
2023/09/30 02:20:21;;;;;;;3.00;1.05;;;11.90;96.00;;;;;;4924178;29;20106;-94
2023/09/30 02:22:49;;;;;;;3.10;1.27;;;12.00;96.10;;;;;;4908830;29;20056;-95
2023/09/30 02:25:20;;;;;;;3.90;1.10;;;11.90;96.10;;;;;;4924216;29;20047;-95
2023/09/30 02:27:49;;;;;;;4.10;1.25;;;11.90;96.10;;;;;;4923280;29;20047;-94
2023/09/30 02:30:21;;;;;;;3.65;1.27;;;11.90;96.00;;;;;;4923641;29;20521;-94
2023/09/30 02:32:51;;;;;;;5.32;1.13;;;11.90;96.00;;;;;;4938245;28;20051;-93
2023/09/30 02:35:20;;;;;;;4.28;1.30;;;11.90;96.30;;;;;;4945550;28;20043;-95
2023/09/30 02:37:51;;;;;;;6.00;1.00;;;11.90;96.00;;;;;;4945185;28;20492;-95
2023/09/30 02:40:19;;;;;;;3.13;0.93;;;12.00;96.00;;;;;;4944547;28;20105;-94
2023/09/30 02:42:52;;;;;;;3.35;1.02;;;12.10;96.00;;;;;;4943434;28;20047;-95
2023/09/30 02:45:19;;;;;;;4.18;1.10;;;12.10;95.90;;;;;;4944359;28;20556;-94
2023/09/30 02:47:50;;;;;;;3.33;1.33;;;12.20;95.80;;;;;;4943678;28;20046;-94
2023/09/30 02:50:21;;;;;;;2.75;1.15;;;12.30;95.80;;;;;;4959346;28;20070;-94
2023/09/30 02:52:49;;;;;;;4.28;1.30;;;12.30;95.70;;;;;;4959305;28;20042;-95
2023/09/30 02:55:17;;;;;;;3.47;1.30;;;12.40;95.70;;;;;;4943369;28;20051;-95
2023/09/30 02:57:46;;;;;;;3.55;1.27;;;12.40;95.70;;;;;;4943447;28;20077;-95
2023/09/30 03:00:26;;;;;;;;;;;12.40;95.70;;;;;;4959998;28;20448;-95
2023/09/30 03:03:02;;;;;;;3.33;0.93;;;12.30;95.70;;;;;;4960479;28;19933;-95
2023/09/30 03:05:35;;;;;;;3.15;0.95;;;12.40;95.70;;;;;;4942973;28;20170;-94
2023/09/30 03:08:15;;;;;;;3.35;1.10;;;12.40;95.70;;;;;;4942868;28;20093;-94
2023/09/30 03:10:46;;;;;;;4.88;1.30;;;12.40;95.70;;;;;;4943036;28;20051;-95
2023/09/30 03:13:21;;;;;;;3.20;1.27;;;12.40;95.70;;;;;;4958944;28;20106;-94
2023/09/30 03:15:51;;;;;;;4.90;1.13;;;12.50;95.70;;;;;;4927887;28;20046;-96
2023/09/30 03:18:26;;;;;;;4.38;1.15;;;12.50;95.60;;;;;;4959648;28;20043;-94
2023/09/30 03:21:00;;;;;;;;;;;12.50;95.60;;;;;;4943230;28;20059;-95
2023/09/30 03:23:30;;;;;;;5.00;1.40;;;12.50;95.60;;;;;;4959558;28;19922;-95
2023/09/30 03:26:09;;;;;;;3.92;1.05;;;12.50;95.60;;;;;;4943288;28;20053;-95
2023/09/30 03:28:41;;;;;;;2.25;1.20;;;12.50;95.60;;;;;;4959428;28;20039;-95
2023/09/30 03:31:12;;;;;;;6.03;1.60;;;12.50;95.60;;;;;;4943591;28;20489;-96
2023/09/30 03:33:39;;;;;;;3.85;1.17;;;12.50;95.60;;;;;;4943526;28;20049;-96
2023/09/30 03:36:10;;;;;;;3.40;1.63;;;12.50;95.70;;;;;;4943682;28;20055;-96
2023/09/30 03:38:39;;;;;;;3.80;1.10;;;12.50;95.70;;;;;;4959236;28;20054;-94
2023/09/30 03:41:19;;;;;;;3.80;1.52;;;12.50;95.70;;;;;;4960374;28;20436;-95
2023/09/30 03:43:47;;;;;;;4.47;1.50;;;12.50;95.80;;;;;;4943669;28;20047;-95
2023/09/30 03:46:17;;;;;;;3.13;1.33;;;12.50;95.80;;;;;;4958404;28;20043;-95
2023/09/30 03:48:44;;;;;;;4.88;1.77;;;12.50;95.80;;;;;;4943015;28;20102;-95
2023/09/30 03:51:15;;;;;;;3.20;1.52;;;12.50;96.10;;;;;;4959357;28;20077;-95
2023/09/30 03:53:45;;;;;;;4.30;1.45;;;12.50;95.80;;;;;;4946509;28;20054;-95
2023/09/30 03:56:15;;;;;;;;;;;12.50;95.80;;;;;;4947644;28;20049;-94
2023/09/30 03:58:44;;;;;;;3.20;1.10;;;12.50;95.80;;;;;;4946763;28;20013;-94
2023/09/30 04:01:13;;;;;;;4.72;1.80;;;12.40;95.80;;;;;;4962859;28;20051;-94
2023/09/30 04:03:43;;;;;;;3.50;1.27;;;12.50;95.90;;;;;;4946666;28;20425;-94
2023/09/30 04:06:12;;;;;;;3.00;1.35;;;12.50;95.90;;;;;;4946704;28;20493;-94
2023/09/30 04:08:43;;;;;;;4.40;1.48;;;12.50;95.90;;;;;;4946365;28;20047;-95
2023/09/30 04:11:17;;;;;;;4.20;1.38;;;12.50;95.90;;;;;;4946671;28;20059;-94
2023/09/30 04:13:45;;;;;;;5.38;1.75;;;12.50;95.90;;;;;;4961903;28;20065;-95
2023/09/30 04:16:15;;;;;;;3.63;1.50;;;12.50;95.90;;;;;;4946452;28;20053;-94
2023/09/30 04:18:44;;;;;;;3.47;1.50;;;12.50;95.90;;;;;;4946210;28;20047;-94
2023/09/30 04:21:11;;;;;;;3.08;1.17;;;12.50;95.90;;;;;;4946028;28;20055;-94
2023/09/30 04:23:39;;;;;;;6.80;1.73;;;12.50;95.90;;;;;;4946447;28;20409;-94
2023/09/30 04:26:09;;;;;;;3.45;1.40;;;12.50;95.90;;;;;;4946505;28;20043;-95
2023/09/30 04:28:38;;;;;;;4.43;1.25;;;12.40;95.90;;;;;;4931420;28;20141;-95
2023/09/30 04:31:08;;;;;;;3.60;1.50;;;12.40;95.90;;;;;;4962872;28;20066;-95
2023/09/30 04:33:39;;;;;;;4.57;1.85;;;12.40;95.90;;;;;;4961821;28;20046;-95
2023/09/30 04:36:08;;;;;;;4.70;1.63;;;12.40;95.90;;;;;;4945818;28;20094;-95
2023/09/30 04:38:37;;;;;;;4.05;1.80;;;12.40;95.90;;;;;;4946081;28;20046;-95
2023/09/30 04:41:07;;;;;;;4.15;1.60;;;12.40;95.90;;;;;;4946122;28;20048;-95
2023/09/30 04:43:40;;;;;;;3.50;1.85;;;12.40;95.90;;;;;;4946177;28;20047;-94
2023/09/30 04:46:07;;;;;;;5.70;1.70;;;12.40;95.90;;;;;;4946354;28;20043;-95
2023/09/30 04:48:35;;;;;;;3.88;1.83;;;12.40;95.90;;;;;;4946335;28;20043;-94
2023/09/30 04:51:06;;;;;;;6.15;2.00;;;12.40;95.90;;;;;;4945981;28;20385;-94
2023/09/30 04:53:35;;;;;;;5.13;2.22;;;12.40;95.90;;;;;;4945490;28;20164;-95
2023/09/30 04:56:03;;;;;;;7.13;2.55;;;12.40;95.90;;;;;;4960975;28;20113;-94
2023/09/30 04:58:31;;;;;;;5.05;1.80;;;12.50;95.90;;;;;;4945711;28;20063;-94
2023/09/30 05:01:00;;;;;;;4.25;1.98;;;12.50;95.90;;;;;;4962418;28;20401;-94
2023/09/30 05:03:35;;;;;;;4.23;1.93;;;12.50;95.90;;;;;;4944853;28;20138;-95
2023/09/30 05:06:09;;;;;;;4.88;1.75;;;12.60;95.90;;;;;;4946052;28;20055;-94
2023/09/30 05:08:36;;;;;;;3.85;2.28;;;12.60;95.90;;;;;;4945547;28;20069;-94
2023/09/30 05:11:04;;;;;;;5.93;2.30;;;12.60;95.90;;;;;;4945491;28;20539;-94
2023/09/30 05:13:33;;;;;;;6.03;2.50;;;12.60;95.80;;;;;;4961388;28;20050;-95
2023/09/30 05:16:01;;;;;;;4.57;2.33;;;12.60;95.90;;;;;;4945497;28;20141;-94
2023/09/30 05:18:29;;;;;;;5.15;2.05;;;12.60;95.90;;;;;;4944888;28;20047;-95
2023/09/30 05:20:56;;;;;;;5.65;2.05;;;12.60;95.90;;;;;;4944593;28;20121;-95
2023/09/30 05:23:24;;;;;;;4.22;2.13;;;12.60;95.90;;;;;;4944756;28;20081;-95
2023/09/30 05:25:53;;;;;;;4.25;1.80;;;12.60;96.20;;;;;;4944934;28;20078;-95
2023/09/30 05:28:21;;;;;;;4.47;2.30;;;12.50;96.00;;;;;;4945046;28;20556;-94
2023/09/30 05:30:50;;;;;;;5.93;2.25;;;12.60;96.00;;;;;;4944884;28;20106;-95
2023/09/30 05:33:22;;;;;;;6.75;2.53;;;12.50;96.00;;;;;;4944840;28;20133;-94
2023/09/30 05:35:51;;;;;;;4.03;2.33;;;12.50;96.00;;;;;;4945043;28;20043;-95
2023/09/30 05:38:26;;;;;;;5.95;2.40;;;12.50;96.00;;;;;;4945503;28;20051;-95
2023/09/30 05:40:55;;;;;;;5.85;2.70;;;12.50;96.00;;;;;;4944900;28;20050;-95
2023/09/30 05:43:31;;;;;;;3.88;1.90;;;12.50;96.00;;;;;;4960510;28;20053;-94
2023/09/30 05:46:00;;;;;;;6.47;2.08;;;12.50;96.00;;;;;;4930269;28;20058;-94
2023/09/30 05:48:28;;;;;;;4.70;2.60;;;12.50;96.00;;;;;;4944420;28;20497;-92
2023/09/30 05:50:55;;;;;;;5.90;2.35;;;12.50;96.00;;;;;;4928688;28;20493;-88
2023/09/30 05:53:24;;;;;;;4.05;2.13;;;12.50;96.00;;;;;;4927154;28;20070;-86
2023/09/30 05:55:51;;;;;;;5.97;2.33;;;12.50;96.10;;;;;;4950644;28;20047;-86
2023/09/30 05:58:19;;;;;;;7.15;2.22;;;12.50;96.10;;;;;;4940596;29;20115;-89
2023/09/30 06:00:46;;;;;;;6.75;2.55;;;12.40;96.10;;;;;;4943636;28;20091;-86
2023/09/30 06:03:15;;;;;;;3.38;1.80;;;12.40;96.10;;;;;;4927408;28;20083;-87
2023/09/30 06:05:43;;;;;;;5.03;2.38;;;12.40;96.10;;;;;;4924518;28;20527;-88
2023/09/30 06:08:13;;;;;;;5.50;2.20;;;12.40;96.20;;;;;;4940309;28;20129;-90
2023/09/30 06:10:44;;;;;;;5.93;2.20;;;12.40;96.20;;;;;;4920710;28;20047;-86
2023/09/30 06:13:13;;;;;;;5.13;2.33;;;12.40;96.20;;;;;;4936641;29;20044;-90
2023/09/30 06:15:41;;;;;;;5.00;2.38;;;12.30;96.20;;;;;;4924292;29;20051;-90
2023/09/30 06:18:13;;;;;;;6.32;2.65;;;12.30;96.20;;;;;;4940133;29;20065;-91
2023/09/30 06:20:41;;;;;;;;;;;12.30;96.20;;;;;;4939110;29;20075;-90
2023/09/30 06:23:09;;;;;;;4.88;1.80;;;12.30;96.20;;;;;;4939294;28;19935;-91
2023/09/30 06:25:37;;;;;;;3.83;1.65;;;12.30;96.20;;;;;;4955679;28;20054;-92
2023/09/30 06:28:08;;;;;;;4.45;2.35;;;12.40;96.20;;;;;;4952226;28;20056;-88
2023/09/30 06:30:35;;;;;;;6.03;2.28;;;12.40;96.20;;;;;;4936695;28;20413;-91
2023/09/30 06:33:04;;;;;;;5.55;2.47;;;12.50;96.20;;;;;;4945536;28;20134;-88
2023/09/30 06:35:37;;;;;;;5.22;1.80;;;12.50;96.20;;;;;;4943363;29;20069;-89
2023/09/30 06:38:07;;;;;;;3.47;1.85;;;12.50;96.20;;;;;;4974317;28;20079;-91
2023/09/30 06:40:35;;;;;;;6.03;2.00;;;12.50;96.10;;;;;;4954679;29;20047;-92
2023/09/30 06:43:19;;;;;;;4.93;2.20;;;12.60;96.10;;;;;;4961712;28;20126;-90
2023/09/30 06:45:46;;;;;;;5.55;2.25;;;12.70;96.10;;;;;;4938017;29;20494;-93
2023/09/30 06:48:17;;;;;;;5.35;2.20;;;12.70;96.10;;;;;;4925088;29;20055;-93
2023/09/30 06:50:48;;;;;;;5.63;2.70;;;12.70;96.10;;;;;;4921055;29;20048;-89
2023/09/30 06:53:21;;;;;;;6.10;2.92;;;12.80;96.10;;;;;;4933612;28;20047;-95
2023/09/30 06:55:48;;;;;;;7.40;2.53;;;12.90;96.00;;;;;;4924112;28;20065;-89
2023/09/30 06:58:21;;;;;;;6.18;2.40;;;13.00;95.90;;;;;;4952614;28;20062;-89
2023/09/30 07:01:01;;;;;;;5.30;1.98;;;13.00;95.90;;;;;;4940999;28;20051;-87
2023/09/30 07:03:28;;;;;;;3.55;2.25;;;13.00;95.90;;;;;;4937555;28;20043;-87
2023/09/30 07:06:00;;;;;;;5.43;2.30;;;13.00;95.90;;;;;;4939903;28;20055;-91
2023/09/30 07:08:31;;;;;;;6.50;1.98;;;13.00;95.90;;;;;;4940207;28;20505;-93
2023/09/30 07:11:05;;;;;;;7.38;2.45;;;13.00;95.90;;;;;;4924960;28;20047;-91
2023/09/30 07:13:32;;;;;;;5.75;2.28;;;13.10;96.00;;;;;;4923963;28;20040;-91
2023/09/30 07:16:03;;;;;;;4.10;2.35;;;13.10;95.90;;;;;;4924280;29;20044;-92
2023/09/30 07:18:30;;;;;;;7.20;3.30;;;13.20;96.00;;;;;;4924028;28;20079;-93
2023/09/30 07:20:59;;;;;;;5.78;2.88;;;13.20;95.90;;;;;;4925127;29;20064;-89
2023/09/30 07:23:31;;;;;;;7.80;3.78;;;13.30;95.90;;;;;;4939282;28;20054;-89
2023/09/30 07:26:00;;;;;;;8.63;4.53;;;13.30;95.80;;;;;;4927971;28;20051;-91
2023/09/30 07:28:29;;;;;;;7.28;4.45;;;13.40;95.80;;;;;;4958633;28;20043;-91
2023/09/30 07:30:56;;;;;;;11.48;5.82;;;13.50;95.80;;;;;;4943618;28;20090;-92
2023/09/30 07:33:24;;;;;;;9.73;5.30;;;13.50;95.80;;;;;;4928124;29;20047;-92
2023/09/30 07:35:55;;;;;;;11.20;6.22;;;13.60;95.80;;;;;;4940329;29;20048;-91
2023/09/30 07:38:22;;;;;;;12.02;6.53;;;13.60;95.80;;;;;;4924407;29;20055;-91
2023/09/30 07:40:50;;;;;;;14.45;6.70;;;13.70;95.70;;;;;;4924319;29;20056;-91
2023/09/30 07:43:20;;;;;;;15.57;7.50;;;13.80;95.80;;;;;;4924320;29;20391;-90
2023/09/30 07:45:50;;;;;;;14.93;7.68;;;13.80;95.80;;;;;;4924902;29;20057;-90
2023/09/30 07:48:20;;;;;;;14.38;7.53;;;13.80;95.80;;;;;;4929222;29;20067;-91
2023/09/30 07:50:48;;;;;;;13.25;6.43;;;13.90;95.80;;;;;;4927422;28;20043;-91
2023/09/30 07:53:15;;;;;;;8.90;5.47;;;14.00;95.80;;;;;;4927226;28;20063;-93
2023/09/30 07:55:43;;;;;;;11.15;5.90;;;14.00;95.70;;;;;;4927572;29;20048;-90
2023/09/30 07:58:10;;;;;;;13.10;5.57;;;14.10;95.70;;;;;;4958602;28;20054;-93
2023/09/30 08:00:37;;;;;;;9.90;5.00;;;14.10;95.70;;;;;;4943532;29;20114;-90
2023/09/30 08:03:07;;;;;;;10.18;4.88;;;14.20;95.70;;;;;;4958936;28;20099;-92
2023/09/30 08:05:40;;;;;;;11.63;6.35;;;14.30;95.70;;;;;;4946138;28;20047;-91
2023/09/30 08:08:07;;;;;;;11.43;5.72;;;14.30;95.70;;;;;;4927006;29;20077;-91
2023/09/30 08:10:36;;;;;;;12.15;5.93;;;14.40;95.70;;;;;;4958894;28;20047;-92
2023/09/30 08:13:09;;;;;;;12.57;5.57;;;14.50;95.70;;;;;;4943136;28;20047;-93
2023/09/30 08:15:41;;;;;;;10.63;5.75;;;14.50;95.60;;;;;;4939644;29;20910;-93
2023/09/30 08:18:16;;;;;;;12.60;6.65;;;14.60;95.70;;;;;;4925010;29;20065;-92
2023/09/30 08:20:50;;;;;;;13.43;6.80;;;14.60;95.60;;;;;;4924053;29;20054;-93
2023/09/30 08:23:21;;;;;;;11.65;6.78;;;14.60;95.70;;;;;;4923861;29;20129;-93
2023/09/30 08:25:48;;;;;;;11.80;5.85;;;14.70;95.70;;;;;;4923661;29;20052;-89
2023/09/30 08:28:16;;;;;;;15.07;6.97;;;14.70;95.60;;;;;;4934354;28;20051;-93
2023/09/30 08:30:46;;;;;;;12.20;6.85;;;14.80;95.70;;;;;;4923291;29;20048;-90
2023/09/30 08:33:16;;;;;;;10.20;5.70;;;14.80;95.60;;;;;;4918676;28;20048;-89
2023/09/30 08:35:48;;;;;;;11.38;5.75;;;14.80;95.60;;;;;;4939487;29;20083;-90
2023/09/30 08:38:18;;;;;;;10.95;6.82;;;14.90;95.60;;;;;;4926308;29;20149;-89
2023/09/30 08:40:48;;;;;;;11.07;6.18;;;14.90;95.60;;;;;;4913892;28;20047;-89
2023/09/30 08:43:19;;;;;;;13.60;6.82;;;15.00;95.60;;;;;;4938979;28;20513;-89
2023/09/30 08:45:53;;;;;;;11.40;6.88;;;15.00;95.60;;;;;;4926135;29;20513;-92
2023/09/30 08:48:23;;;;;;;12.88;7.13;;;15.10;95.60;;;;;;4941980;28;20043;-91
2023/09/30 08:50:52;;;;;;;14.95;6.80;;;15.10;95.50;;;;;;4942120;29;20457;-92
2023/09/30 08:53:20;;;;;;;11.90;5.53;;;15.20;95.50;;;;;;4942180;28;20043;-91
2023/09/30 08:55:48;;;;;;;11.77;7.35;;;15.30;95.50;;;;;;4926218;29;20048;-92
2023/09/30 08:58:16;;;;;;;17.50;7.68;;;15.40;95.50;;;;;;4957992;28;20102;-90
2023/09/30 09:00:45;;;;;;;14.75;7.70;;;15.40;95.40;;;;;;4926772;28;20086;-93
2023/09/30 09:03:12;;;;;;;12.68;6.88;;;15.50;95.40;;;;;;4926148;29;20043;-91
2023/09/30 09:05:45;;;;;;;11.77;6.53;;;15.50;95.30;;;;;;4942120;28;20083;-93
2023/09/30 09:08:12;;;;;;;11.52;5.72;;;15.60;95.30;;;;;;4937782;28;20141;-92
2023/09/30 09:11:00;;;;;;;10.43;6.25;;;15.60;95.30;;;;;;4925660;29;20071;-91
2023/09/30 09:13:49;;;;;;;13.48;7.45;;;15.60;95.20;;;;;;4934153;29;20067;-92
2023/09/30 09:16:20;;;;;;;12.85;6.47;;;15.70;95.20;;;;;;4922659;29;20094;-92
2023/09/30 09:18:50;;;;;;;14.32;7.45;;;15.70;95.20;;;;;;4938523;29;20051;-91
2023/09/30 09:21:27;;;;;;;11.07;5.82;;;15.80;95.40;;;;;;4939845;29;20103;-91
2023/09/30 09:23:54;;;;;;;8.90;4.97;;;15.90;95.10;;;;;;4926095;29;20055;-93
2023/09/30 09:26:26;;;;;;;10.48;5.20;;;15.90;95.10;;;;;;4947750;28;20090;-92
2023/09/30 09:29:03;;;;;;;9.10;4.57;;;15.90;95.30;;;;;;4941942;28;20094;-92
2023/09/30 09:31:36;;;;;;;8.05;3.85;;;16.00;95.00;;;;;;4941548;28;20379;-92
2023/09/30 09:34:15;;;;;;;8.57;4.32;;;16.00;95.00;;;;;;4926521;28;20053;-92
2023/09/30 09:36:45;;;;;;;8.60;3.95;;;16.10;95.00;;;;;;4926108;28;20519;-92
2023/09/30 09:39:21;;;;;;;7.07;3.80;;;16.20;95.00;;;;;;4925951;28;20055;-93
2023/09/30 09:41:57;;;;;;;9.25;4.13;;;16.20;94.90;;;;;;4941975;28;20134;-94
2023/09/30 09:44:44;;;;;;;8.30;3.85;;;16.20;94.80;;;;;;4926719;29;20070;-88
2023/09/30 09:47:13;;;;;;;9.93;5.75;;;16.40;94.70;;;;;;4940452;28;20050;-91
2023/09/30 09:51:36;;;;;;;13.90;6.13;;;16.40;94.70;;;;;;4925606;28;20082;-96
2023/09/30 09:54:40;;;;;;;14.17;5.27;;;16.50;94.60;;;;;;4947287;28;20106;-87
2023/09/30 09:57:53;;;;;;;13.63;6.05;;;16.50;94.50;;;;;;4934190;29;20047;-96
2023/09/30 10:00:25;;;;;;;11.30;5.88;;;16.60;94.40;;;;;;4950776;28;20070;-87
2023/09/30 10:02:56;;;;;;;8.52;4.45;;;16.70;94.40;;;;;;4925671;28;20078;-91
2023/09/30 10:06:10;;;;;;;11.73;5.75;;;16.80;94.40;;;;;;4957494;28;20457;-93
2023/09/30 10:08:47;;;;;;;14.75;5.95;;;16.90;94.30;;;;;;4941454;28;20047;-96
2023/09/30 10:11:22;;;;;;;12.25;5.70;;;16.90;94.20;;;;;;4927282;28;20562;-92
2023/09/30 10:14:22;;;;;;;;;;;;;;;;;;;;;
2023/09/30 10:17:50;;;;;;;13.55;5.55;;;17.10;94.00;;;;;;4940583;29;20059;-94
2023/09/30 10:20:29;;;;;;;9.18;4.40;;;17.10;93.90;;;;;;4922727;29;20138;-87
2023/09/30 10:27:39;;;;;;;10.30;4.30;;;17.40;93.60;;;;;;4961506;29;20058;-89
2023/09/30 10:30:13;;;;;;;13.63;5.82;;;17.50;93.50;;;;;;4925283;28;20051;-92
2023/09/30 10:32:59;;;;;;;6.85;3.70;;;17.50;93.40;;;;;;4934349;28;20130;-87
2023/09/30 10:35:31;;;;;;;7.57;3.50;;;17.60;93.40;;;;;;4936231;29;20085;-93
2023/09/30 10:38:24;;;;;;;7.68;3.88;;;17.60;93.30;;;;;;4933102;29;20051;-92
2023/09/30 10:40:58;;;;;;;9.32;3.97;;;17.70;93.20;;;;;;4938892;28;20138;-96
2023/09/30 10:43:52;;;;;;;10.88;4.22;;;17.70;92.90;;;;;;4947325;28;20485;-90
2023/09/30 10:46:29;;;;;;;7.80;3.35;;;17.70;92.50;;;;;;4945387;28;20043;-90
2023/09/30 10:48:57;;;;;;;10.15;3.72;;;17.80;92.50;;;;;;4945489;28;20071;-90
2023/09/30 10:52:25;;;;;;;6.22;2.83;;;17.80;92.50;;;;;;4893662;29;20048;-90
2023/09/30 10:55:30;;;;;;;7.63;2.20;;;17.80;92.40;;;;;;4909794;29;20047;-89
2023/09/30 10:58:14;;;;;;;8.23;2.33;;;17.90;92.40;;;;;;4911626;29;20058;-87
2023/09/30 11:00:54;;;;;;;4.40;1.67;;;18.10;92.30;;;;;;4904838;29;20081;-87
2023/09/30 11:03:37;;;;;;;;;;;;;;;;;;;;;
2023/09/30 11:06:33;;;;;;;5.40;1.80;;;18.20;92.10;;;;;;4884229;29;20543;-88
2023/09/30 11:09:02;;;;;;;7.32;2.22;;;18.40;91.80;;;;;;4867868;29;20048;-87
2023/09/30 11:11:48;;;;;;;7.18;1.65;;;18.50;91.40;;;;;;4893401;29;20105;-85
2023/09/30 11:14:33;;;;;;;5.20;1.30;;;18.70;91.30;;;;;;4882951;29;20508;-89
2023/09/30 11:21:43;;;;;;;7.97;2.80;;;18.80;91.10;;;;;;4878785;29;20053;-87
2023/09/30 11:24:13;;;;;;;5.07;1.80;;;18.80;90.70;;;;;;4883574;29;20048;-85
2023/09/30 11:26:43;;;;;;;5.85;1.52;;;18.70;90.80;;;;;;4877518;29;21066;-83
2023/09/30 11:29:18;;;;;;;5.95;1.80;;;18.70;90.40;;;;;;4922390;28;20067;-83
2023/09/30 11:31:50;;;;;;;7.38;1.90;;;18.70;90.20;;;;;;4903430;29;20127;-85
2023/09/30 11:34:21;;;;;;;7.32;2.33;;;18.70;90.10;;;;;;4927118;29;20057;-84
2023/09/30 11:36:50;;;;;;;5.20;1.25;;;18.80;89.10;;;;;;4937921;28;20070;-84
2023/09/30 11:39:26;;;;;;;6.32;1.20;;;18.80;89.40;;;;;;4941691;28;20047;-84
2023/09/30 11:41:55;;;;;;;4.68;1.20;;;18.90;89.50;;;;;;4943617;28;20058;-84
2023/09/30 11:44:32;;;;;;;4.78;1.00;;;18.90;89.60;;;;;;4963671;28;20051;-82
2023/09/30 11:47:05;;;;;;;5.72;1.10;;;19.00;89.50;;;;;;4946560;28;20065;-84
2023/09/30 11:49:40;;;;;;;3.25;0.77;;;19.00;89.40;;;;;;4923993;29;20043;-84
2023/09/30 11:52:11;;;;;;;3.17;0.60;;;19.20;89.50;;;;;;4938815;29;20079;-84
2023/09/30 11:54:42;;;;;;;2.60;0.73;;;19.30;89.40;;;;;;4938652;28;20047;-84
2023/09/30 11:57:15;;;;;;;3.50;0.80;;;19.40;89.00;;;;;;4922641;28;20098;-83
2023/09/30 11:59:44;;;;;;;5.05;1.30;;;19.50;88.60;;;;;;4947308;28;20103;-85
2023/09/30 12:02:16;;;;;;;4.20;0.50;;;19.60;87.80;;;;;;4938678;29;20043;-84
2023/09/30 12:04:50;;;;;;;3.55;0.90;;;19.80;87.80;;;;;;4948835;28;20058;-84
2023/09/30 12:07:18;;;;;;;2.05;0.50;;;19.90;87.60;;;;;;4938047;29;20047;-85
2023/09/30 12:09:45;;;;;;;1.80;0.77;;;20.10;87.30;;;;;;4937432;28;20047;-84
2023/09/30 12:12:15;;;;;;;4.38;1.00;;;20.10;85.20;;;;;;4937730;28;20071;-84
2023/09/30 12:14:50;;;;;;;4.82;1.27;;;20.20;84.80;;;;;;4957165;28;20046;-86
2023/09/30 12:17:18;;;;;;;6.60;1.27;;;20.30;84.40;;;;;;4937798;29;20135;-85
2023/09/30 12:19:46;;;;;;;4.57;1.17;;;20.30;82.60;;;;;;4917534;28;20063;-84
2023/09/30 12:22:20;;;;;;;7.30;0.98;;;20.30;82.70;;;;;;4925612;29;20047;-85
2023/09/30 12:24:50;;;;;;;3.83;0.90;;;20.30;81.80;;;;;;4940695;28;20047;-84
2023/09/30 12:27:18;;;;;;;6.00;1.00;;;20.30;81.80;;;;;;4941141;29;20057;-83
2023/09/30 12:29:48;;;;;;;5.50;1.63;;;20.30;81.00;;;;;;4940599;29;20553;-84
2023/09/30 12:32:15;;;;;;;3.63;1.10;;;20.20;80.60;;;;;;4925155;29;20094;-84
2023/09/30 12:34:44;;;;;;;5.07;1.40;;;20.10;80.40;;;;;;4947116;28;20490;-84
2023/09/30 12:37:11;;;;;;;3.95;1.10;;;19.90;79.80;;;;;;4952705;28;20039;-83
2023/09/30 12:39:41;;;;;;;5.03;1.30;;;19.80;80.00;;;;;;4940795;28;20047;-84
2023/09/30 12:42:10;;;;;;;8.98;1.67;;;19.60;80.10;;;;;;4956807;28;20063;-84
2023/09/30 12:44:39;;;;;;;5.07;0.85;;;19.50;80.20;;;;;;4940323;29;20110;-84
2023/09/30 12:47:06;;;;;;;7.07;1.27;;;19.40;80.40;;;;;;4937172;29;20051;-84
2023/09/30 12:49:33;;;;;;;3.17;1.17;;;19.40;80.50;;;;;;4934772;29;20131;-85
2023/09/30 12:52:03;;;;;;;3.47;0.90;;;19.40;80.70;;;;;;4941316;28;20098;-85
2023/09/30 12:54:32;;;;;;;6.13;1.05;;;19.40;80.20;;;;;;4924755;28;20102;-84
2023/09/30 12:56:59;;;;;;;3.35;1.15;;;19.40;79.70;;;;;;4924594;28;20130;-84
2023/09/30 12:59:30;;;;;;;2.60;0.80;;;19.40;78.90;;;;;;4934494;28;20047;-85
2023/09/30 13:02:00;;;;;;;4.95;1.45;;;19.40;78.40;;;;;;4940719;28;20043;-84
2023/09/30 13:04:29;;;;;;;4.97;1.95;;;19.50;77.80;;;;;;4957233;28;20066;-84
2023/09/30 13:06:57;;;;;;;4.30;1.00;;;19.50;77.70;;;;;;4953510;28;20082;-84
2023/09/30 13:09:24;;;;;;;5.22;1.30;;;19.50;77.80;;;;;;4940404;29;20043;-85
2023/09/30 13:11:52;;;;;;;4.35;1.58;;;19.40;77.50;;;;;;4940186;28;20126;-84
2023/09/30 13:14:19;;;;;;;2.60;1.00;;;19.40;77.10;;;;;;4934453;28;20047;-85
2023/09/30 13:16:47;;;;;;;4.35;0.77;;;19.40;77.90;;;;;;4940738;28;20044;-85
2023/09/30 13:19:15;;;;;;;5.53;1.00;;;19.40;78.00;;;;;;4940765;28;20039;-85
2023/09/30 13:21:43;;;;;;;3.38;1.13;;;19.30;77.90;;;;;;4945060;28;20573;-85